sensor_id;sensor_type;location;lat;lon;timestamp;P1;durP1;ratioP1;P2;durP2;ratioP2
52730;SDS011;38624;53.242;6.974;2023-07-13T00:00:25;7.55;;;2.00;;
52730;SDS011;38624;53.242;6.974;2023-07-13T00:02:51;5.82;;;1.75;;
52730;SDS011;38624;53.242;6.974;2023-07-13T00:05:21;7.57;;;2.03;;
52730;SDS011;38624;53.242;6.974;2023-07-13T00:07:48;6.25;;;2.08;;
52730;SDS011;38624;53.242;6.974;2023-07-13T00:10:17;8.95;;;2.42;;
52730;SDS011;38624;53.242;6.974;2023-07-13T00:12:43;6.20;;;2.20;;
52730;SDS011;38624;53.242;6.974;2023-07-13T00:15:12;12.57;;;2.15;;
52730;SDS011;38624;53.242;6.974;2023-07-13T00:17:41;5.10;;;1.80;;
52730;SDS011;38624;53.242;6.974;2023-07-13T00:20:10;5.78;;;2.50;;
52730;SDS011;38624;53.242;6.974;2023-07-13T00:25:02;7.53;;;2.42;;
52730;SDS011;38624;53.242;6.974;2023-07-13T00:27:28;5.70;;;2.43;;
52730;SDS011;38624;53.242;6.974;2023-07-13T00:29:56;7.65;;;2.90;;
52730;SDS011;38624;53.242;6.974;2023-07-13T00:32:23;8.15;;;2.45;;
52730;SDS011;38624;53.242;6.974;2023-07-13T00:34:51;7.05;;;2.97;;
52730;SDS011;38624;53.242;6.974;2023-07-13T00:37:17;9.60;;;2.80;;
52730;SDS011;38624;53.242;6.974;2023-07-13T00:39:42;6.83;;;2.73;;
52730;SDS011;38624;53.242;6.974;2023-07-13T00:42:08;11.70;;;2.90;;
52730;SDS011;38624;53.242;6.974;2023-07-13T00:44:34;7.07;;;2.80;;
52730;SDS011;38624;53.242;6.974;2023-07-13T00:47:00;9.37;;;2.60;;
52730;SDS011;38624;53.242;6.974;2023-07-13T00:49:26;11.00;;;2.60;;
52730;SDS011;38624;53.242;6.974;2023-07-13T00:52:04;10.25;;;2.63;;
52730;SDS011;38624;53.242;6.974;2023-07-13T00:54:36;9.48;;;2.55;;
52730;SDS011;38624;53.242;6.974;2023-07-13T00:57:05;9.02;;;2.45;;
52730;SDS011;38624;53.242;6.974;2023-07-13T00:59:35;9.40;;;2.70;;
52730;SDS011;38624;53.242;6.974;2023-07-13T01:02:04;8.10;;;2.47;;
52730;SDS011;38624;53.242;6.974;2023-07-13T01:04:30;10.73;;;2.50;;
52730;SDS011;38624;53.242;6.974;2023-07-13T01:06:56;6.70;;;2.60;;
52730;SDS011;38624;53.242;6.974;2023-07-13T01:09:22;8.23;;;2.20;;
52730;SDS011;38624;53.242;6.974;2023-07-13T01:11:48;7.55;;;2.35;;
52730;SDS011;38624;53.242;6.974;2023-07-13T01:14:14;9.67;;;2.60;;
52730;SDS011;38624;53.242;6.974;2023-07-13T01:16:42;8.68;;;2.70;;
52730;SDS011;38624;53.242;6.974;2023-07-13T01:22:04;7.35;;;1.83;;
52730;SDS011;38624;53.242;6.974;2023-07-13T01:24:37;6.97;;;2.17;;
52730;SDS011;38624;53.242;6.974;2023-07-13T01:27:05;6.35;;;2.05;;
52730;SDS011;38624;53.242;6.974;2023-07-13T01:29:32;10.27;;;2.60;;
52730;SDS011;38624;53.242;6.974;2023-07-13T01:31:59;8.30;;;2.20;;
52730;SDS011;38624;53.242;6.974;2023-07-13T01:34:26;8.50;;;2.28;;
52730;SDS011;38624;53.242;6.974;2023-07-13T01:36:52;10.18;;;2.65;;
52730;SDS011;38624;53.242;6.974;2023-07-13T01:39:21;9.80;;;2.72;;
52730;SDS011;38624;53.242;6.974;2023-07-13T01:41:48;7.57;;;2.40;;
52730;SDS011;38624;53.242;6.974;2023-07-13T01:44:14;9.35;;;2.53;;
52730;SDS011;38624;53.242;6.974;2023-07-13T01:46:40;11.80;;;3.10;;
52730;SDS011;38624;53.242;6.974;2023-07-13T01:49:06;8.87;;;2.53;;
52730;SDS011;38624;53.242;6.974;2023-07-13T01:51:31;7.50;;;2.30;;
52730;SDS011;38624;53.242;6.974;2023-07-13T01:53:57;10.20;;;2.87;;
52730;SDS011;38624;53.242;6.974;2023-07-13T01:56:23;12.43;;;2.87;;
52730;SDS011;38624;53.242;6.974;2023-07-13T01:58:48;12.23;;;2.90;;
52730;SDS011;38624;53.242;6.974;2023-07-13T02:01:14;11.67;;;2.70;;
52730;SDS011;38624;53.242;6.974;2023-07-13T02:03:40;10.47;;;3.30;;
52730;SDS011;38624;53.242;6.974;2023-07-13T02:06:06;6.07;;;2.30;;
52730;SDS011;38624;53.242;6.974;2023-07-13T02:08:32;14.37;;;2.73;;
52730;SDS011;38624;53.242;6.974;2023-07-13T02:10:58;10.20;;;2.50;;
52730;SDS011;38624;53.242;6.974;2023-07-13T02:13:24;8.40;;;2.53;;
52730;SDS011;38624;53.242;6.974;2023-07-13T02:15:53;8.17;;;2.60;;
52730;SDS011;38624;53.242;6.974;2023-07-13T02:18:18;9.55;;;2.50;;
52730;SDS011;38624;53.242;6.974;2023-07-13T02:20:44;8.03;;;2.87;;
52730;SDS011;38624;53.242;6.974;2023-07-13T02:23:10;7.83;;;2.50;;
52730;SDS011;38624;53.242;6.974;2023-07-13T02:25:36;13.57;;;3.00;;
52730;SDS011;38624;53.242;6.974;2023-07-13T02:28:02;12.55;;;3.05;;
52730;SDS011;38624;53.242;6.974;2023-07-13T02:30:28;10.60;;;2.78;;
52730;SDS011;38624;53.242;6.974;2023-07-13T02:32:55;9.43;;;2.78;;
52730;SDS011;38624;53.242;6.974;2023-07-13T02:35:21;13.23;;;3.20;;
52730;SDS011;38624;53.242;6.974;2023-07-13T02:37:47;12.63;;;3.15;;
52730;SDS011;38624;53.242;6.974;2023-07-13T02:40:13;10.90;;;2.73;;
52730;SDS011;38624;53.242;6.974;2023-07-13T02:42:39;13.63;;;3.07;;
52730;SDS011;38624;53.242;6.974;2023-07-13T02:45:05;11.70;;;3.08;;
52730;SDS011;38624;53.242;6.974;2023-07-13T02:47:32;11.90;;;3.05;;
52730;SDS011;38624;53.242;6.974;2023-07-13T02:49:58;10.73;;;2.53;;
52730;SDS011;38624;53.242;6.974;2023-07-13T02:52:24;12.77;;;3.03;;
52730;SDS011;38624;53.242;6.974;2023-07-13T02:54:50;11.20;;;3.22;;
52730;SDS011;38624;53.242;6.974;2023-07-13T02:57:16;9.23;;;2.83;;
52730;SDS011;38624;53.242;6.974;2023-07-13T02:59:42;12.33;;;3.30;;
52730;SDS011;38624;53.242;6.974;2023-07-13T03:02:07;9.77;;;2.60;;
52730;SDS011;38624;53.242;6.974;2023-07-13T03:04:35;9.05;;;3.15;;
52730;SDS011;38624;53.242;6.974;2023-07-13T03:07:02;11.68;;;2.78;;
52730;SDS011;38624;53.242;6.974;2023-07-13T03:09:28;8.10;;;2.80;;
52730;SDS011;38624;53.242;6.974;2023-07-13T03:11:55;8.40;;;2.90;;
52730;SDS011;38624;53.242;6.974;2023-07-13T03:14:24;10.27;;;3.27;;
52730;SDS011;38624;53.242;6.974;2023-07-13T03:16:50;9.27;;;2.97;;
52730;SDS011;38624;53.242;6.974;2023-07-13T03:19:16;10.02;;;2.80;;
52730;SDS011;38624;53.242;6.974;2023-07-13T03:21:43;9.82;;;2.78;;
52730;SDS011;38624;53.242;6.974;2023-07-13T03:24:09;11.97;;;2.93;;
52730;SDS011;38624;53.242;6.974;2023-07-13T03:26:34;14.15;;;3.22;;
52730;SDS011;38624;53.242;6.974;2023-07-13T03:29:00;12.43;;;2.93;;
52730;SDS011;38624;53.242;6.974;2023-07-13T03:31:27;12.77;;;3.47;;
52730;SDS011;38624;53.242;6.974;2023-07-13T03:33:54;9.48;;;2.63;;
52730;SDS011;38624;53.242;6.974;2023-07-13T03:36:22;10.80;;;3.17;;
52730;SDS011;38624;53.242;6.974;2023-07-13T03:38:50;11.55;;;2.90;;
52730;SDS011;38624;53.242;6.974;2023-07-13T03:41:18;6.50;;;2.65;;
52730;SDS011;38624;53.242;6.974;2023-07-13T03:46:13;10.98;;;2.90;;
52730;SDS011;38624;53.242;6.974;2023-07-13T03:48:39;9.70;;;2.67;;
52730;SDS011;38624;53.242;6.974;2023-07-13T03:51:08;10.93;;;3.53;;
52730;SDS011;38624;53.242;6.974;2023-07-13T03:53:37;9.37;;;3.03;;
52730;SDS011;38624;53.242;6.974;2023-07-13T03:56:04;12.32;;;3.20;;
52730;SDS011;38624;53.242;6.974;2023-07-13T03:58:39;11.32;;;3.22;;
52730;SDS011;38624;53.242;6.974;2023-07-13T04:01:06;12.85;;;3.78;;
52730;SDS011;38624;53.242;6.974;2023-07-13T04:03:34;10.35;;;3.22;;
52730;SDS011;38624;53.242;6.974;2023-07-13T04:06:01;14.35;;;3.28;;
52730;SDS011;38624;53.242;6.974;2023-07-13T04:08:32;13.65;;;3.17;;
52730;SDS011;38624;53.242;6.974;2023-07-13T04:11:00;11.20;;;3.55;;
52730;SDS011;38624;53.242;6.974;2023-07-13T04:13:27;11.00;;;3.17;;
52730;SDS011;38624;53.242;6.974;2023-07-13T04:15:53;15.17;;;3.43;;
52730;SDS011;38624;53.242;6.974;2023-07-13T04:18:19;14.35;;;3.15;;
52730;SDS011;38624;53.242;6.974;2023-07-13T04:20:46;12.70;;;3.15;;
52730;SDS011;38624;53.242;6.974;2023-07-13T04:23:12;10.35;;;3.60;;
52730;SDS011;38624;53.242;6.974;2023-07-13T04:25:38;11.37;;;3.33;;
52730;SDS011;38624;53.242;6.974;2023-07-13T04:28:04;10.43;;;3.33;;
52730;SDS011;38624;53.242;6.974;2023-07-13T04:30:32;9.07;;;2.42;;
52730;SDS011;38624;53.242;6.974;2023-07-13T04:32:57;12.40;;;3.47;;
52730;SDS011;38624;53.242;6.974;2023-07-13T04:35:23;9.93;;;3.17;;
52730;SDS011;38624;53.242;6.974;2023-07-13T04:37:49;12.50;;;3.57;;
52730;SDS011;38624;53.242;6.974;2023-07-13T04:40:18;15.13;;;2.97;;
52730;SDS011;38624;53.242;6.974;2023-07-13T04:42:45;10.55;;;2.90;;
52730;SDS011;38624;53.242;6.974;2023-07-13T04:45:12;11.02;;;3.03;;
52730;SDS011;38624;53.242;6.974;2023-07-13T04:47:39;12.27;;;3.20;;
52730;SDS011;38624;53.242;6.974;2023-07-13T04:50:06;10.68;;;2.80;;
52730;SDS011;38624;53.242;6.974;2023-07-13T04:52:32;15.43;;;3.38;;
52730;SDS011;38624;53.242;6.974;2023-07-13T04:54:58;14.67;;;3.40;;
52730;SDS011;38624;53.242;6.974;2023-07-13T04:57:25;16.40;;;3.35;;
52730;SDS011;38624;53.242;6.974;2023-07-13T04:59:51;12.10;;;3.08;;
52730;SDS011;38624;53.242;6.974;2023-07-13T05:02:17;11.37;;;3.10;;
52730;SDS011;38624;53.242;6.974;2023-07-13T05:04:46;15.50;;;3.97;;
52730;SDS011;38624;53.242;6.974;2023-07-13T05:07:14;14.45;;;3.50;;
52730;SDS011;38624;53.242;6.974;2023-07-13T05:09:40;11.10;;;3.33;;
52730;SDS011;38624;53.242;6.974;2023-07-13T05:12:07;10.23;;;2.87;;
52730;SDS011;38624;53.242;6.974;2023-07-13T05:14:33;16.33;;;3.60;;
52730;SDS011;38624;53.242;6.974;2023-07-13T05:16:59;15.33;;;3.30;;
52730;SDS011;38624;53.242;6.974;2023-07-13T05:19:25;11.80;;;2.60;;
52730;SDS011;38624;53.242;6.974;2023-07-13T05:21:51;11.00;;;3.20;;
52730;SDS011;38624;53.242;6.974;2023-07-13T05:24:16;7.27;;;3.17;;
52730;SDS011;38624;53.242;6.974;2023-07-13T05:26:42;12.57;;;3.27;;
52730;SDS011;38624;53.242;6.974;2023-07-13T05:29:08;11.93;;;2.90;;
52730;SDS011;38624;53.242;6.974;2023-07-13T05:31:33;11.97;;;3.57;;
52730;SDS011;38624;53.242;6.974;2023-07-13T05:33:59;15.43;;;3.90;;
52730;SDS011;38624;53.242;6.974;2023-07-13T05:36:25;10.23;;;3.20;;
52730;SDS011;38624;53.242;6.974;2023-07-13T05:38:50;14.60;;;3.27;;
52730;SDS011;38624;53.242;6.974;2023-07-13T05:41:16;12.37;;;3.30;;
52730;SDS011;38624;53.242;6.974;2023-07-13T05:43:42;6.97;;;2.70;;
52730;SDS011;38624;53.242;6.974;2023-07-13T05:46:07;13.03;;;3.47;;
52730;SDS011;38624;53.242;6.974;2023-07-13T05:48:33;12.73;;;3.20;;
52730;SDS011;38624;53.242;6.974;2023-07-13T05:50:59;11.13;;;3.27;;
52730;SDS011;38624;53.242;6.974;2023-07-13T05:53:25;10.73;;;3.53;;
52730;SDS011;38624;53.242;6.974;2023-07-13T05:55:51;12.20;;;3.43;;
52730;SDS011;38624;53.242;6.974;2023-07-13T05:58:19;8.63;;;2.90;;
52730;SDS011;38624;53.242;6.974;2023-07-13T06:00:48;12.75;;;3.60;;
52730;SDS011;38624;53.242;6.974;2023-07-13T06:03:23;12.20;;;2.70;;
52730;SDS011;38624;53.242;6.974;2023-07-13T06:05:49;11.20;;;2.90;;
52730;SDS011;38624;53.242;6.974;2023-07-13T06:08:14;10.63;;;3.43;;
52730;SDS011;38624;53.242;6.974;2023-07-13T06:10:40;14.17;;;3.30;;
52730;SDS011;38624;53.242;6.974;2023-07-13T06:13:06;11.17;;;3.07;;
52730;SDS011;38624;53.242;6.974;2023-07-13T06:15:31;13.40;;;3.20;;
52730;SDS011;38624;53.242;6.974;2023-07-13T06:17:57;14.53;;;3.43;;
52730;SDS011;38624;53.242;6.974;2023-07-13T06:20:23;10.27;;;3.23;;
52730;SDS011;38624;53.242;6.974;2023-07-13T06:22:49;8.50;;;2.73;;
52730;SDS011;38624;53.242;6.974;2023-07-13T06:25:14;10.97;;;2.83;;
52730;SDS011;38624;53.242;6.974;2023-07-13T06:27:40;10.23;;;3.17;;
52730;SDS011;38624;53.242;6.974;2023-07-13T06:30:06;9.90;;;2.90;;
52730;SDS011;38624;53.242;6.974;2023-07-13T06:32:32;9.90;;;2.72;;
52730;SDS011;38624;53.242;6.974;2023-07-13T06:34:57;11.00;;;3.00;;
52730;SDS011;38624;53.242;6.974;2023-07-13T06:37:23;9.07;;;3.80;;
52730;SDS011;38624;53.242;6.974;2023-07-13T06:39:49;12.40;;;2.90;;
52730;SDS011;38624;53.242;6.974;2023-07-13T06:42:15;10.93;;;3.30;;
52730;SDS011;38624;53.242;6.974;2023-07-13T06:44:41;8.35;;;2.70;;
52730;SDS011;38624;53.242;6.974;2023-07-13T06:47:07;9.43;;;2.67;;
52730;SDS011;38624;53.242;6.974;2023-07-13T06:49:33;7.93;;;2.67;;
52730;SDS011;38624;53.242;6.974;2023-07-13T06:51:58;10.73;;;3.00;;
52730;SDS011;38624;53.242;6.974;2023-07-13T06:54:24;11.73;;;2.63;;
52730;SDS011;38624;53.242;6.974;2023-07-13T06:56:50;7.63;;;2.07;;
52730;SDS011;38624;53.242;6.974;2023-07-13T07:01:42;7.00;;;2.40;;
52730;SDS011;38624;53.242;6.974;2023-07-13T07:04:08;7.40;;;2.53;;
52730;SDS011;38624;53.242;6.974;2023-07-13T07:06:34;6.70;;;2.37;;
52730;SDS011;38624;53.242;6.974;2023-07-13T07:08:59;8.33;;;2.20;;
52730;SDS011;38624;53.242;6.974;2023-07-13T07:11:25;9.77;;;2.27;;
52730;SDS011;38624;53.242;6.974;2023-07-13T07:13:52;7.87;;;2.50;;
52730;SDS011;38624;53.242;6.974;2023-07-13T07:18:44;6.68;;;2.00;;
52730;SDS011;38624;53.242;6.974;2023-07-13T07:21:10;5.53;;;2.55;;
52730;SDS011;38624;53.242;6.974;2023-07-13T07:23:36;7.07;;;2.10;;
52730;SDS011;38624;53.242;6.974;2023-07-13T07:26:02;6.07;;;1.87;;
52730;SDS011;38624;53.242;6.974;2023-07-13T07:28:28;7.33;;;2.03;;
52730;SDS011;38624;53.242;6.974;2023-07-13T07:30:55;6.55;;;1.70;;
52730;SDS011;38624;53.242;6.974;2023-07-13T07:33:22;4.18;;;1.50;;
52730;SDS011;38624;53.242;6.974;2023-07-13T07:35:48;9.20;;;1.90;;
52730;SDS011;38624;53.242;6.974;2023-07-13T07:38:13;5.37;;;1.93;;
52730;SDS011;38624;53.242;6.974;2023-07-13T07:40:40;6.20;;;1.92;;
52730;SDS011;38624;53.242;6.974;2023-07-13T07:43:07;6.65;;;1.95;;
52730;SDS011;38624;53.242;6.974;2023-07-13T07:45:33;6.80;;;1.73;;
52730;SDS011;38624;53.242;6.974;2023-07-13T07:48:00;5.97;;;2.22;;
52730;SDS011;38624;53.242;6.974;2023-07-13T07:50:26;5.27;;;1.77;;
52730;SDS011;38624;53.242;6.974;2023-07-13T07:52:52;5.75;;;1.90;;
52730;SDS011;38624;53.242;6.974;2023-07-13T07:55:21;5.97;;;1.90;;
52730;SDS011;38624;53.242;6.974;2023-07-13T07:57:47;4.68;;;1.90;;
52730;SDS011;38624;53.242;6.974;2023-07-13T08:00:13;8.10;;;1.80;;
52730;SDS011;38624;53.242;6.974;2023-07-13T08:02:39;11.88;;;2.40;;
52730;SDS011;38624;53.242;6.974;2023-07-13T08:07:32;4.50;;;1.90;;
52730;SDS011;38624;53.242;6.974;2023-07-13T08:09:58;5.90;;;1.80;;
52730;SDS011;38624;53.242;6.974;2023-07-13T08:12:23;6.60;;;2.30;;
52730;SDS011;38624;53.242;6.974;2023-07-13T08:14:50;4.77;;;1.93;;
52730;SDS011;38624;53.242;6.974;2023-07-13T08:17:22;5.00;;;1.90;;
52730;SDS011;38624;53.242;6.974;2023-07-13T08:19:48;3.90;;;1.75;;
52730;SDS011;38624;53.242;6.974;2023-07-13T08:22:13;7.73;;;2.17;;
52730;SDS011;38624;53.242;6.974;2023-07-13T08:24:40;5.85;;;2.00;;
52730;SDS011;38624;53.242;6.974;2023-07-13T08:27:07;9.88;;;2.65;;
52730;SDS011;38624;53.242;6.974;2023-07-13T08:29:33;7.35;;;1.90;;
52730;SDS011;38624;53.242;6.974;2023-07-13T08:31:59;6.43;;;1.83;;
52730;SDS011;38624;53.242;6.974;2023-07-13T08:34:25;6.53;;;2.20;;
52730;SDS011;38624;53.242;6.974;2023-07-13T08:36:51;9.70;;;2.20;;
52730;SDS011;38624;53.242;6.974;2023-07-13T08:39:16;5.40;;;1.60;;
52730;SDS011;38624;53.242;6.974;2023-07-13T08:41:44;4.75;;;1.83;;
52730;SDS011;38624;53.242;6.974;2023-07-13T08:44:16;6.30;;;2.10;;
52730;SDS011;38624;53.242;6.974;2023-07-13T08:49:16;3.03;;;1.30;;
52730;SDS011;38624;53.242;6.974;2023-07-13T08:51:53;1.88;;;1.00;;
52730;SDS011;38624;53.242;6.974;2023-07-13T08:54:30;2.58;;;1.10;;
52730;SDS011;38624;53.242;6.974;2023-07-13T08:57:03;2.25;;;1.00;;
52730;SDS011;38624;53.242;6.974;2023-07-13T08:59:37;2.33;;;1.13;;
52730;SDS011;38624;53.242;6.974;2023-07-13T09:08:04;6.22;;;1.40;;
52730;SDS011;38624;53.242;6.974;2023-07-13T09:11:03;3.60;;;1.30;;
52730;SDS011;38624;53.242;6.974;2023-07-13T09:13:56;3.95;;;1.30;;
52730;SDS011;38624;53.242;6.974;2023-07-13T09:18:50;4.65;;;1.80;;
52730;SDS011;38624;53.242;6.974;2023-07-13T09:21:28;4.68;;;1.50;;
52730;SDS011;38624;53.242;6.974;2023-07-13T09:23:59;5.15;;;1.55;;
52730;SDS011;38624;53.242;6.974;2023-07-13T09:26:46;5.55;;;1.60;;
52730;SDS011;38624;53.242;6.974;2023-07-13T09:29:14;5.30;;;1.90;;
52730;SDS011;38624;53.242;6.974;2023-07-13T09:31:46;4.22;;;1.70;;
52730;SDS011;38624;53.242;6.974;2023-07-13T09:34:16;3.67;;;1.67;;
52730;SDS011;38624;53.242;6.974;2023-07-13T09:36:42;2.70;;;1.58;;
52730;SDS011;38624;53.242;6.974;2023-07-13T09:42:12;4.20;;;1.50;;
52730;SDS011;38624;53.242;6.974;2023-07-13T09:47:28;3.20;;;1.50;;
52730;SDS011;38624;53.242;6.974;2023-07-13T09:52:27;5.13;;;1.40;;
52730;SDS011;38624;53.242;6.974;2023-07-13T09:55:04;3.50;;;1.50;;
52730;SDS011;38624;53.242;6.974;2023-07-13T09:57:47;3.88;;;1.70;;
52730;SDS011;38624;53.242;6.974;2023-07-13T10:00:20;3.65;;;1.90;;
52730;SDS011;38624;53.242;6.974;2023-07-13T10:02:49;3.05;;;1.50;;
52730;SDS011;38624;53.242;6.974;2023-07-13T10:05:28;3.15;;;1.95;;
52730;SDS011;38624;53.242;6.974;2023-07-13T10:08:14;4.72;;;2.03;;
52730;SDS011;38624;53.242;6.974;2023-07-13T10:11:01;3.83;;;1.63;;
52730;SDS011;38624;53.242;6.974;2023-07-13T10:13:46;5.50;;;1.70;;
52730;SDS011;38624;53.242;6.974;2023-07-13T10:16:22;3.67;;;1.90;;
52730;SDS011;38624;53.242;6.974;2023-07-13T10:18:51;4.40;;;1.67;;
52730;SDS011;38624;53.242;6.974;2023-07-13T10:21:22;3.67;;;1.80;;
52730;SDS011;38624;53.242;6.974;2023-07-13T10:24:02;3.42;;;1.95;;
52730;SDS011;38624;53.242;6.974;2023-07-13T10:26:45;3.78;;;2.00;;
52730;SDS011;38624;53.242;6.974;2023-07-13T10:29:16;4.50;;;1.75;;
52730;SDS011;38624;53.242;6.974;2023-07-13T10:31:44;5.78;;;2.47;;
52730;SDS011;38624;53.242;6.974;2023-07-13T10:34:13;5.20;;;2.10;;
52730;SDS011;38624;53.242;6.974;2023-07-13T10:36:44;5.47;;;2.20;;
52730;SDS011;38624;53.242;6.974;2023-07-13T10:39:20;7.18;;;2.05;;
52730;SDS011;38624;53.242;6.974;2023-07-13T10:41:57;9.80;;;2.78;;
52730;SDS011;38624;53.242;6.974;2023-07-13T10:44:27;5.20;;;2.88;;
52730;SDS011;38624;53.242;6.974;2023-07-13T10:46:55;7.53;;;2.70;;
52730;SDS011;38624;53.242;6.974;2023-07-13T10:49:24;6.43;;;2.10;;
52730;SDS011;38624;53.242;6.974;2023-07-13T10:51:51;5.68;;;2.10;;
52730;SDS011;38624;53.242;6.974;2023-07-13T10:54:19;8.05;;;2.45;;
52730;SDS011;38624;53.242;6.974;2023-07-13T10:56:52;5.32;;;1.95;;
52730;SDS011;38624;53.242;6.974;2023-07-13T10:59:39;5.07;;;2.13;;
52730;SDS011;38624;53.242;6.974;2023-07-13T11:04:47;6.15;;;2.53;;
52730;SDS011;38624;53.242;6.974;2023-07-13T11:10:50;4.13;;;2.25;;
52730;SDS011;38624;53.242;6.974;2023-07-13T11:16:13;6.28;;;2.28;;
52730;SDS011;38624;53.242;6.974;2023-07-13T11:18:49;3.35;;;1.90;;
52730;SDS011;38624;53.242;6.974;2023-07-13T11:21:17;6.38;;;2.78;;
52730;SDS011;38624;53.242;6.974;2023-07-13T11:23:45;4.85;;;2.20;;
52730;SDS011;38624;53.242;6.974;2023-07-13T11:31:57;4.82;;;2.40;;
52730;SDS011;38624;53.242;6.974;2023-07-13T11:34:33;5.95;;;2.28;;
52730;SDS011;38624;53.242;6.974;2023-07-13T11:37:01;3.80;;;2.20;;
52730;SDS011;38624;53.242;6.974;2023-07-13T11:39:29;5.10;;;1.98;;
52730;SDS011;38624;53.242;6.974;2023-07-13T11:41:58;4.82;;;2.20;;
52730;SDS011;38624;53.242;6.974;2023-07-13T11:44:27;4.43;;;2.45;;
52730;SDS011;38624;53.242;6.974;2023-07-13T11:46:55;5.75;;;2.20;;
52730;SDS011;38624;53.242;6.974;2023-07-13T11:49:25;5.25;;;1.90;;
52730;SDS011;38624;53.242;6.974;2023-07-13T11:51:56;5.15;;;1.90;;
52730;SDS011;38624;53.242;6.974;2023-07-13T11:54:25;4.38;;;1.27;;
52730;SDS011;38624;53.242;6.974;2023-07-13T11:57:02;4.35;;;1.58;;
52730;SDS011;38624;53.242;6.974;2023-07-13T11:59:41;3.22;;;1.35;;
52730;SDS011;38624;53.242;6.974;2023-07-13T12:02:13;2.90;;;1.75;;
52730;SDS011;38624;53.242;6.974;2023-07-13T12:04:42;4.57;;;1.75;;
52730;SDS011;38624;53.242;6.974;2023-07-13T12:07:16;3.08;;;1.20;;
52730;SDS011;38624;53.242;6.974;2023-07-13T12:09:43;4.80;;;1.27;;
52730;SDS011;38624;53.242;6.974;2023-07-13T12:12:12;2.53;;;1.20;;
52730;SDS011;38624;53.242;6.974;2023-07-13T12:14:42;2.30;;;0.90;;
52730;SDS011;38624;53.242;6.974;2023-07-13T12:17:16;2.28;;;1.10;;
52730;SDS011;38624;53.242;6.974;2023-07-13T12:19:47;3.85;;;1.10;;
52730;SDS011;38624;53.242;6.974;2023-07-13T12:22:14;3.60;;;1.10;;
52730;SDS011;38624;53.242;6.974;2023-07-13T12:24:43;4.97;;;1.52;;
52730;SDS011;38624;53.242;6.974;2023-07-13T12:27:19;5.38;;;1.80;;
52730;SDS011;38624;53.242;6.974;2023-07-13T12:30:04;4.28;;;1.38;;
52730;SDS011;38624;53.242;6.974;2023-07-13T12:33:12;2.58;;;1.35;;
52730;SDS011;38624;53.242;6.974;2023-07-13T12:35:45;4.78;;;1.38;;
52730;SDS011;38624;53.242;6.974;2023-07-13T12:38:15;2.28;;;0.98;;
52730;SDS011;38624;53.242;6.974;2023-07-13T12:40:41;5.25;;;1.30;;
52730;SDS011;38624;53.242;6.974;2023-07-13T12:43:11;3.63;;;1.50;;
52730;SDS011;38624;53.242;6.974;2023-07-13T12:45:38;2.72;;;1.20;;
52730;SDS011;38624;53.242;6.974;2023-07-13T12:48:19;3.65;;;1.20;;
52730;SDS011;38624;53.242;6.974;2023-07-13T12:50:46;2.63;;;1.15;;
52730;SDS011;38624;53.242;6.974;2023-07-13T12:53:21;4.22;;;1.30;;
52730;SDS011;38624;53.242;6.974;2023-07-13T12:55:55;3.80;;;1.30;;
52730;SDS011;38624;53.242;6.974;2023-07-13T13:00:53;3.55;;;1.23;;
52730;SDS011;38624;53.242;6.974;2023-07-13T13:03:31;5.25;;;1.27;;
52730;SDS011;38624;53.242;6.974;2023-07-13T13:05:59;7.68;;;1.90;;
52730;SDS011;38624;53.242;6.974;2023-07-13T13:08:28;5.03;;;1.58;;
52730;SDS011;38624;53.242;6.974;2023-07-13T13:13:20;5.53;;;1.95;;
52730;SDS011;38624;53.242;6.974;2023-07-13T13:15:46;6.18;;;1.58;;
52730;SDS011;38624;53.242;6.974;2023-07-13T13:18:30;4.75;;;1.50;;
52730;SDS011;38624;53.242;6.974;2023-07-13T13:20:56;2.63;;;1.50;;
52730;SDS011;38624;53.242;6.974;2023-07-13T13:23:22;3.80;;;1.30;;
52730;SDS011;38624;53.242;6.974;2023-07-13T13:28:16;2.87;;;1.20;;
52730;SDS011;38624;53.242;6.974;2023-07-13T13:30:44;3.70;;;1.20;;
52730;SDS011;38624;53.242;6.974;2023-07-13T13:33:11;3.03;;;1.20;;
52730;SDS011;38624;53.242;6.974;2023-07-13T13:35:39;2.50;;;1.27;;
52730;SDS011;38624;53.242;6.974;2023-07-13T13:38:10;4.15;;;1.20;;
52730;SDS011;38624;53.242;6.974;2023-07-13T13:40:43;4.55;;;1.20;;
52730;SDS011;38624;53.242;6.974;2023-07-13T13:43:43;4.57;;;1.40;;
52730;SDS011;38624;53.242;6.974;2023-07-13T13:46:02;3.83;;;1.23;;
52730;SDS011;38624;53.242;6.974;2023-07-13T13:48:50;3.65;;;1.30;;
52730;SDS011;38624;53.242;6.974;2023-07-13T13:51:17;3.95;;;1.25;;
52730;SDS011;38624;53.242;6.974;2023-07-13T13:53:44;4.93;;;1.50;;
52730;SDS011;38624;53.242;6.974;2023-07-13T13:58:40;2.70;;;1.30;;
52730;SDS011;38624;53.242;6.974;2023-07-13T14:01:13;3.20;;;1.52;;
52730;SDS011;38624;53.242;6.974;2023-07-13T14:03:45;4.00;;;1.10;;
52730;SDS011;38624;53.242;6.974;2023-07-13T14:06:14;5.30;;;1.30;;
52730;SDS011;38624;53.242;6.974;2023-07-13T14:08:40;3.10;;;1.30;;
52730;SDS011;38624;53.242;6.974;2023-07-13T14:11:09;6.22;;;1.80;;
52730;SDS011;38624;53.242;6.974;2023-07-13T14:13:42;3.97;;;1.42;;
52730;SDS011;38624;53.242;6.974;2023-07-13T14:16:19;4.95;;;1.73;;
52730;SDS011;38624;53.242;6.974;2023-07-13T14:18:46;3.80;;;1.52;;
52730;SDS011;38624;53.242;6.974;2023-07-13T14:23:40;4.95;;;1.85;;
52730;SDS011;38624;53.242;6.974;2023-07-13T14:26:17;4.65;;;1.90;;
52730;SDS011;38624;53.242;6.974;2023-07-13T14:28:45;6.63;;;1.48;;
52730;SDS011;38624;53.242;6.974;2023-07-13T14:31:16;5.45;;;1.77;;
52730;SDS011;38624;53.242;6.974;2023-07-13T14:33:43;5.70;;;1.63;;
52730;SDS011;38624;53.242;6.974;2023-07-13T14:36:52;5.93;;;1.98;;
52730;SDS011;38624;53.242;6.974;2023-07-13T14:39:08;5.13;;;1.55;;
52730;SDS011;38624;53.242;6.974;2023-07-13T14:41:48;5.07;;;1.88;;
52730;SDS011;38624;53.242;6.974;2023-07-13T14:44:24;8.63;;;2.30;;
52730;SDS011;38624;53.242;6.974;2023-07-13T14:46:51;6.70;;;2.10;;
52730;SDS011;38624;53.242;6.974;2023-07-13T14:49:24;2.72;;;1.52;;
52730;SDS011;38624;53.242;6.974;2023-07-13T14:51:55;4.47;;;1.50;;
52730;SDS011;38624;53.242;6.974;2023-07-13T14:54:22;7.20;;;1.70;;
52730;SDS011;38624;53.242;6.974;2023-07-13T14:56:48;4.75;;;1.70;;
52730;SDS011;38624;53.242;6.974;2023-07-13T14:59:15;5.75;;;1.88;;
52730;SDS011;38624;53.242;6.974;2023-07-13T15:01:44;4.45;;;1.88;;
52730;SDS011;38624;53.242;6.974;2023-07-13T15:04:11;4.53;;;2.10;;
52730;SDS011;38624;53.242;6.974;2023-07-13T15:09:24;6.40;;;1.83;;
52730;SDS011;38624;53.242;6.974;2023-07-13T15:11:57;5.20;;;2.45;;
52730;SDS011;38624;53.242;6.974;2023-07-13T15:14:23;7.18;;;1.60;;
52730;SDS011;38624;53.242;6.974;2023-07-13T15:16:51;5.35;;;1.50;;
52730;SDS011;38624;53.242;6.974;2023-07-13T15:19:19;6.25;;;1.80;;
52730;SDS011;38624;53.242;6.974;2023-07-13T15:21:46;3.83;;;1.60;;
52730;SDS011;38624;53.242;6.974;2023-07-13T15:24:12;4.93;;;1.42;;
52730;SDS011;38624;53.242;6.974;2023-07-13T15:26:38;5.80;;;1.33;;
52730;SDS011;38624;53.242;6.974;2023-07-13T15:29:05;3.88;;;1.30;;
52730;SDS011;38624;53.242;6.974;2023-07-13T15:31:31;5.20;;;1.60;;
52730;SDS011;38624;53.242;6.974;2023-07-13T15:33:59;9.35;;;1.73;;
52730;SDS011;38624;53.242;6.974;2023-07-13T15:36:25;3.97;;;1.63;;
52730;SDS011;38624;53.242;6.974;2023-07-13T15:38:52;9.15;;;2.00;;
52730;SDS011;38624;53.242;6.974;2023-07-13T15:41:20;5.65;;;2.30;;
52730;SDS011;38624;53.242;6.974;2023-07-13T15:43:48;5.20;;;1.95;;
52730;SDS011;38624;53.242;6.974;2023-07-13T15:46:19;10.10;;;2.33;;
52730;SDS011;38624;53.242;6.974;2023-07-13T15:48:49;4.32;;;2.20;;
52730;SDS011;38624;53.242;6.974;2023-07-13T15:51:29;6.88;;;2.05;;
52730;SDS011;38624;53.242;6.974;2023-07-13T15:54:00;6.72;;;2.25;;
52730;SDS011;38624;53.242;6.974;2023-07-13T15:56:32;9.52;;;2.20;;